Time;durP1;ratioP1;P1;durP2;ratioP2;P2;SDS_P1;SDS_P2;PMS_P1;PMS_P2;Temp;Humidity;BMP_temperature;BMP_pressure;BME280_temperature;BME280_humidity;BME280_pressure;Samples;Min_cycle;Max_cycle;Signal;HPM_P1;HPM_P2
2021/07/23 00:00:58;;;;;;;8.77;7.60;;;;;;;;;;4877168;29;20219;-72
2021/07/23 00:03:45;;;;;;;8.40;7.67;;;;;;;;;;4878090;29;20830;-70
2021/07/23 00:06:30;;;;;;;8.37;7.57;;;;;;;;;;4890447;29;20222;-72
2021/07/23 00:09:15;;;;;;;8.63;7.70;;;;;;;;;;4896767;29;20207;-71
2021/07/23 00:12:01;;;;;;;8.10;7.30;;;;;;;;;;4884208;29;20250;-68
2021/07/23 00:14:45;;;;;;;8.17;7.47;;;;;;;;;;4877943;29;20211;-71
2021/07/23 00:17:30;;;;;;;8.77;7.97;;;;;;;;;;4877243;29;20259;-71
2021/07/23 00:20:17;;;;;;;9.13;8.33;;;;;;;;;;4885370;29;20872;-71
2021/07/23 00:23:02;;;;;;;9.40;8.50;;;;;;;;;;4875173;29;20360;-71
2021/07/23 00:25:46;;;;;;;9.00;8.10;;;;;;;;;;4864418;29;20691;-70
2021/07/23 00:28:31;;;;;;;9.20;8.27;;;;;;;;;;4888349;29;20223;-71
2021/07/23 00:31:16;;;;;;;9.20;8.40;;;;;;;;;;4896184;29;20211;-71
2021/07/23 00:34:01;;;;;;;9.20;8.23;;;;;;;;;;4895226;29;20263;-70
2021/07/23 00:36:47;;;;;;;8.63;7.83;;;;;;;;;;4894500;29;20696;-71
2021/07/23 00:39:32;;;;;;;9.10;8.30;;;;;;;;;;4892221;29;20219;-71
2021/07/23 00:42:17;;;;;;;9.03;8.23;;;;;;;;;;4876558;29;20318;-70
2021/07/23 00:45:02;;;;;;;8.43;7.63;;;;;;;;;;4877293;29;20639;-70
2021/07/23 00:47:49;;;;;;;8.30;7.60;;;;;;;;;;4876902;29;20226;-71
2021/07/23 00:50:34;;;;;;;8.53;7.83;;;;;;;;;;4877270;29;20215;-70
2021/07/23 00:53:20;;;;;;;9.17;8.37;;;;;;;;;;4894819;29;20264;-71
2021/07/23 00:56:05;;;;;;;8.83;8.10;;;;;;;;;;4858230;29;20268;-70
2021/07/23 00:58:50;;;;;;;10.57;9.00;;;;;;;;;;4891862;29;20222;-71
2021/07/23 01:01:35;;;;;;;10.00;9.10;;;;;;;;;;4895721;29;20213;-70
2021/07/23 01:04:19;;;;;;;9.37;8.47;;;;;;;;;;4895837;29;20292;-71
2021/07/23 01:07:04;;;;;;;10.07;9.13;;;;;;;;;;4895009;29;20367;-70
2021/07/23 01:09:51;;;;;;;10.07;9.13;;;;;;;;;;4876551;29;20214;-71
2021/07/23 01:12:36;;;;;;;10.33;9.27;;;;;;;;;;4876971;29;20242;-71
2021/07/23 01:15:21;;;;;;;10.57;8.70;;;;;;;;;;4877138;29;20807;-71
2021/07/23 01:18:06;;;;;;;10.27;9.17;;;;;;;;;;4875376;29;20752;-71
2021/07/23 01:20:52;;;;;;;9.97;9.00;;;;;;;;;;4877042;29;20348;-71
2021/07/23 01:23:40;;;;;;;10.83;9.10;;;;;;;;;;4874669;29;20363;-71
2021/07/23 01:26:25;;;;;;;9.47;8.77;;;;;;;;;;4876421;29;20227;-71
2021/07/23 01:29:10;;;;;;;10.20;9.30;;;;;;;;;;4895382;29;20215;-71
2021/07/23 01:31:55;;;;;;;9.93;8.97;;;;;;;;;;4895432;29;20238;-71
2021/07/23 01:34:40;;;;;;;10.47;9.47;;;;;;;;;;4895579;29;20254;-70
2021/07/23 01:37:26;;;;;;;9.67;8.87;;;;;;;;;;4893742;29;20286;-70
2021/07/23 01:40:13;;;;;;;10.37;9.57;;;;;;;;;;4895228;29;20216;-70
2021/07/23 01:42:58;;;;;;;10.07;9.17;;;;;;;;;;4895404;29;20270;-71
2021/07/23 01:45:43;;;;;;;9.83;8.93;;;;;;;;;;4892455;29;20703;-70
2021/07/23 01:48:28;;;;;;;10.53;9.50;;;;;;;;;;4880220;29;20322;-70
2021/07/23 01:51:13;;;;;;;10.63;9.73;;;;;;;;;;4894081;29;20258;-70
2021/07/23 01:53:58;;;;;;;10.23;9.30;;;;;;;;;;4887659;29;20239;-70
2021/07/23 01:56:45;;;;;;;11.00;9.80;;;;;;;;;;4857460;29;20214;-70
2021/07/23 01:59:31;;;;;;;11.90;9.70;;;;;;;;;;4858105;29;20219;-70
2021/07/23 02:02:16;;;;;;;11.20;10.00;;;;;;;;;;4857761;29;20323;-70
2021/07/23 02:05:00;;;;;;;11.20;10.00;;;;;;;;;;4858098;29;20261;-70
2021/07/23 02:07:45;;;;;;;10.93;9.87;;;;;;;;;;4868712;29;20235;-70
2021/07/23 02:10:30;;;;;;;11.90;10.53;;;;;;;;;;4876458;29;20215;-70
2021/07/23 02:13:17;;;;;;;11.53;10.43;;;;;;;;;;4876278;29;20340;-69
2021/07/23 02:16:03;;;;;;;11.87;10.77;;;;;;;;;;4875941;29;20255;-70
2021/07/23 02:18:49;;;;;;;12.70;11.50;;;;;;;;;;4874964;29;20470;-70
2021/07/23 02:21:34;;;;;;;11.67;10.57;;;;;;;;;;4875422;29;20322;-69
2021/07/23 02:24:19;;;;;;;12.10;10.87;;;;;;;;;;4875806;29;21167;-70
2021/07/23 02:27:04;;;;;;;11.53;10.33;;;;;;;;;;4890237;29;20237;-69
2021/07/23 02:29:50;;;;;;;11.67;10.47;;;;;;;;;;4879827;29;20259;-70
2021/07/23 02:32:35;;;;;;;11.73;10.63;;;;;;;;;;4897918;29;20628;-70
2021/07/23 02:35:20;;;;;;;12.30;11.10;;;;;;;;;;4893175;29;20218;-69
2021/07/23 02:38:05;;;;;;;12.23;11.07;;;;;;;;;;4879154;29;20273;-69
2021/07/23 02:40:50;;;;;;;13.03;11.73;;;;;;;;;;4879707;29;20259;-70
2021/07/23 02:43:35;;;;;;;11.83;10.83;;;;;;;;;;4881544;29;20279;-70
2021/07/23 02:46:21;;;;;;;11.93;10.83;;;;;;;;;;4885241;29;20226;-72
2021/07/23 02:49:06;;;;;;;11.70;10.50;;;;;;;;;;4878469;29;20235;-71
2021/07/23 02:51:51;;;;;;;11.90;10.67;;;;;;;;;;4878453;29;20288;-71
2021/07/23 02:54:35;;;;;;;11.57;10.43;;;;;;;;;;4891671;29;20300;-71
2021/07/23 02:57:20;;;;;;;12.33;11.10;;;;;;;;;;4868599;29;20211;-71
2021/07/23 03:00:06;;;;;;;11.80;10.70;;;;;;;;;;4879194;29;20700;-71
2021/07/23 03:02:52;;;;;;;12.03;10.83;;;;;;;;;;4877095;29;20243;-68
2021/07/23 03:05:37;;;;;;;12.17;10.97;;;;;;;;;;4878949;29;20223;-71
2021/07/23 03:08:22;;;;;;;12.03;11.03;;;;;;;;;;4878861;29;20295;-71
2021/07/23 03:11:07;;;;;;;12.17;10.97;;;;;;;;;;4887271;29;20374;-71
2021/07/23 03:13:51;;;;;;;12.73;11.47;;;;;;;;;;4885878;29;20238;-71
2021/07/23 03:16:36;;;;;;;13.00;11.77;;;;;;;;;;4890960;29;20218;-70
2021/07/23 03:19:23;;;;;;;14.48;13.18;;;;;;;;;;4889844;29;20569;-71
2021/07/23 03:22:07;;;;;;;12.77;11.63;;;;;;;;;;4896018;29;20325;-70
2021/07/23 03:24:52;;;;;;;13.03;11.70;;;;;;;;;;4895530;29;20218;-70
2021/07/23 03:27:37;;;;;;;12.90;11.70;;;;;;;;;;4896454;29;20211;-70
2021/07/23 03:30:22;;;;;;;14.20;12.37;;;;;;;;;;4887657;29;20703;-70
2021/07/23 03:33:07;;;;;;;12.03;10.93;;;;;;;;;;4897581;29;20294;-70
2021/07/23 03:35:53;;;;;;;12.80;11.50;;;;;;;;;;4894648;29;20221;-70
2021/07/23 03:38:38;;;;;;;13.87;11.67;;;;;;;;;;4897530;29;20617;-70
2021/07/23 03:41:23;;;;;;;13.07;11.70;;;;;;;;;;4895936;29;20213;-70
2021/07/23 03:44:08;;;;;;;12.63;11.40;;;;;;;;;;4889092;29;20699;-69
2021/07/23 03:46:53;;;;;;;12.47;11.17;;;;;;;;;;4859146;29;20259;-70
2021/07/23 03:49:38;;;;;;;12.60;11.40;;;;;;;;;;4862938;29;20218;-67
2021/07/23 03:52:26;;;;;;;13.07;11.77;;;;;;;;;;4859398;29;20283;-71
2021/07/23 03:55:12;;;;;;;12.90;11.60;;;;;;;;;;4864585;29;20207;-70
2021/07/23 03:57:57;;;;;;;13.17;11.90;;;;;;;;;;4895906;29;20319;-70
2021/07/23 04:00:42;;;;;;;13.13;11.83;;;;;;;;;;4894854;29;20611;-71
2021/07/23 04:03:27;;;;;;;13.60;12.30;;;;;;;;;;4892557;29;20250;-70
2021/07/23 04:06:12;;;;;;;14.00;12.67;;;;;;;;;;4888340;29;20722;-71
2021/07/23 04:08:58;;;;;;;13.43;11.80;;;;;;;;;;4895368;29;20230;-70
2021/07/23 04:11:48;;;;;;;13.17;11.87;;;;;;;;;;4894416;29;20222;-69
2021/07/23 04:14:33;;;;;;;12.77;11.47;;;;;;;;;;4878247;29;20731;-70
2021/07/23 04:17:18;;;;;;;15.10;13.57;;;;;;;;;;4876144;29;20512;-70
2021/07/23 04:20:03;;;;;;;14.27;12.77;;;;;;;;;;4877190;29;20336;-69
2021/07/23 04:22:49;;;;;;;14.30;13.00;;;;;;;;;;4877454;29;20607;-70
2021/07/23 04:25:38;;;;;;;13.97;12.67;;;;;;;;;;4885835;29;20221;-68
2021/07/23 04:28:23;;;;;;;13.50;12.13;;;;;;;;;;4883897;29;20572;-70
2021/07/23 04:31:08;;;;;;;14.50;11.87;;;;;;;;;;4891293;29;20217;-70
2021/07/23 04:33:52;;;;;;;12.77;11.57;;;;;;;;;;4895986;29;20236;-70
2021/07/23 04:36:37;;;;;;;13.23;11.90;;;;;;;;;;4895587;29;20331;-70
2021/07/23 04:39:22;;;;;;;12.80;11.53;;;;;;;;;;4890141;29;20765;-71
2021/07/23 04:42:09;;;;;;;13.03;11.70;;;;;;;;;;4877408;29;20366;-70
2021/07/23 04:44:54;;;;;;;13.40;12.10;;;;;;;;;;4881415;29;20524;-69
2021/07/23 04:47:39;;;;;;;13.57;12.37;;;;;;;;;;4895226;29;20225;-70
2021/07/23 04:50:24;;;;;;;13.83;12.40;;;;;;;;;;4890500;29;20261;-70
2021/07/23 04:53:09;;;;;;;13.07;11.93;;;;;;;;;;4895855;29;20940;-70
2021/07/23 04:55:58;;;;;;;12.67;11.53;;;;;;;;;;4893114;29;20217;-71
2021/07/23 04:58:44;;;;;;;13.50;12.10;;;;;;;;;;4893793;29;20231;-70
2021/07/23 05:01:29;;;;;;;13.97;12.67;;;;;;;;;;4884157;29;20251;-70
2021/07/23 05:04:14;;;;;;;13.17;11.87;;;;;;;;;;4877706;29;20320;-70
2021/07/23 05:07:00;;;;;;;12.40;11.20;;;;;;;;;;4894981;29;20819;-70
2021/07/23 05:09:45;;;;;;;11.50;10.50;;;;;;;;;;4883225;29;20214;-70
2021/07/23 05:12:30;;;;;;;13.00;11.73;;;;;;;;;;4876383;29;20248;-69
2021/07/23 05:15:16;;;;;;;12.17;11.07;;;;;;;;;;4876697;29;20214;-70
2021/07/23 05:18:02;;;;;;;13.30;12.13;;;;;;;;;;4875128;29;20446;-69
2021/07/23 05:20:47;;;;;;;11.40;10.30;;;;;;;;;;4876438;29;20567;-72
2021/07/23 05:23:32;;;;;;;11.60;10.70;;;;;;;;;;4874828;29;20732;-70
2021/07/23 05:26:17;;;;;;;12.17;10.90;;;;;;;;;;4876361;29;20227;-68
2021/07/23 05:29:02;;;;;;;10.90;10.00;;;;;;;;;;4872750;29;20216;-70
2021/07/23 05:31:49;;;;;;;11.33;10.23;;;;;;;;;;4876843;29;20215;-70
2021/07/23 05:34:34;;;;;;;11.10;10.07;;;;;;;;;;4876595;29;20312;-70
2021/07/23 05:37:19;;;;;;;10.60;9.77;;;;;;;;;;4876224;29;20211;-70
2021/07/23 05:40:04;;;;;;;10.57;9.57;;;;;;;;;;4876867;29;20289;-69
2021/07/23 05:42:51;;;;;;;10.77;9.80;;;;;;;;;;4876733;29;20239;-69
2021/07/23 05:45:37;;;;;;;9.73;8.77;;;;;;;;;;4876717;29;20223;-70
2021/07/23 05:48:24;;;;;;;9.17;8.37;;;;;;;;;;4876692;29;20215;-70
2021/07/23 05:51:09;;;;;;;9.07;8.20;;;;;;;;;;4875986;29;20724;-70
2021/07/23 05:53:54;;;;;;;8.30;7.50;;;;;;;;;;4876337;29;20869;-70
2021/07/23 05:56:39;;;;;;;11.23;8.27;;;;;;;;;;4877237;29;20215;-70
2021/07/23 05:59:24;;;;;;;8.00;7.40;;;;;;;;;;4880243;29;20214;-70
2021/07/23 06:02:09;;;;;;;8.03;7.43;;;;;;;;;;4880027;29;20243;-70
2021/07/23 06:04:55;;;;;;;7.90;7.20;;;;;;;;;;4879982;29;20250;-71
2021/07/23 06:07:40;;;;;;;7.73;7.07;;;;;;;;;;4879642;29;20216;-70
2021/07/23 06:10:25;;;;;;;7.80;7.00;;;;;;;;;;4880372;29;20216;-71
2021/07/23 06:13:10;;;;;;;7.70;6.93;;;;;;;;;;4879926;29;20238;-71
2021/07/23 06:15:56;;;;;;;7.23;6.70;;;;;;;;;;4879057;29;20215;-71
2021/07/23 06:18:40;;;;;;;6.90;6.20;;;;;;;;;;4879298;29;20249;-72
2021/07/23 06:21:27;;;;;;;4.80;4.40;;;;;;;;;;4872569;29;20207;-70
2021/07/23 06:24:12;;;;;;;6.33;5.30;;;;;;;;;;4877896;29;20215;-71
2021/07/23 06:26:57;;;;;;;5.63;5.13;;;;;;;;;;4877692;29;20568;-71
2021/07/23 06:29:42;;;;;;;5.23;4.77;;;;;;;;;;4860827;29;20798;-72
2021/07/23 06:32:28;;;;;;;5.83;5.37;;;;;;;;;;4861231;29;20324;-73
2021/07/23 06:35:13;;;;;;;5.70;5.20;;;;;;;;;;4861006;29;20606;-72
2021/07/23 06:38:00;;;;;;;7.63;5.50;;;;;;;;;;4877629;29;20296;-74
2021/07/23 06:40:45;;;;;;;6.37;5.33;;;;;;;;;;4879676;29;20215;-71
2021/07/23 06:43:30;;;;;;;6.20;5.60;;;;;;;;;;4879350;29;20744;-71
2021/07/23 06:46:14;;;;;;;6.50;5.57;;;;;;;;;;4878845;29;20207;-72
2021/07/23 06:48:59;;;;;;;6.20;5.60;;;;;;;;;;4879557;29;20700;-71
2021/07/23 06:51:44;;;;;;;4.93;4.63;;;;;;;;;;4879717;29;20203;-72
2021/07/23 06:54:30;;;;;;;7.37;5.10;;;;;;;;;;4878752;29;20207;-72
2021/07/23 06:57:15;;;;;;;5.93;5.27;;;;;;;;;;4878851;29;20204;-72
2021/07/23 07:00:00;;;;;;;7.00;6.33;;;;;;;;;;4878817;29;20601;-71
2021/07/23 07:02:45;;;;;;;6.00;5.60;;;;;;;;;;4878874;29;20779;-72
2021/07/23 07:05:30;;;;;;;6.80;6.13;;;;;;;;;;4879088;29;20270;-72
2021/07/23 07:08:15;;;;;;;8.87;6.20;;;;;;;;;;4878453;29;20706;-72
2021/07/23 07:11:01;;;;;;;7.33;6.07;;;;;;;;;;4879025;29;20267;-71
2021/07/23 07:13:46;;;;;;;7.13;6.43;;;;;;;;;;4878761;29;20236;-70
2021/07/23 07:16:31;;;;;;;6.83;6.07;;;;;;;;;;4877771;29;20575;-71
2021/07/23 07:19:16;;;;;;;6.17;5.47;;;;;;;;;;4879146;29;20915;-70
2021/07/23 07:22:01;;;;;;;5.97;5.33;;;;;;;;;;4876417;29;20258;-71
2021/07/23 07:24:46;;;;;;;5.17;4.87;;;;;;;;;;4859790;29;20822;-70
2021/07/23 07:27:33;;;;;;;4.87;4.57;;;;;;;;;;4864265;29;20213;-73
2021/07/23 07:30:18;;;;;;;5.97;4.90;;;;;;;;;;4879159;29;20211;-71
2021/07/23 07:33:03;;;;;;;5.20;4.70;;;;;;;;;;4878694;29;20717;-71
2021/07/23 07:35:48;;;;;;;5.27;4.77;;;;;;;;;;4877798;29;20209;-71
2021/07/23 07:38:32;;;;;;;5.00;4.10;;;;;;;;;;4878629;29;20218;-71
2021/07/23 07:41:17;;;;;;;5.10;4.20;;;;;;;;;;4878671;29;20219;-72
2021/07/23 07:44:04;;;;;;;4.97;4.47;;;;;;;;;;4878753;29;20318;-72
2021/07/23 07:46:49;;;;;;;6.20;4.57;;;;;;;;;;4877735;29;20215;-72
2021/07/23 07:49:34;;;;;;;7.03;5.47;;;;;;;;;;4878657;29;20188;-71
2021/07/23 07:52:19;;;;;;;5.80;5.20;;;;;;;;;;4878557;29;20239;-71
2021/07/23 07:55:04;;;;;;;6.00;5.40;;;;;;;;;;4878662;29;20691;-70
2021/07/23 07:57:49;;;;;;;5.37;4.90;;;;;;;;;;4877892;29;20261;-71
2021/07/23 08:00:36;;;;;;;4.73;4.30;;;;;;;;;;4878329;29;20221;-71
2021/07/23 08:03:21;;;;;;;5.73;4.77;;;;;;;;;;4878040;29;20254;-72
2021/07/23 08:06:06;;;;;;;5.77;4.83;;;;;;;;;;4877450;29;20210;-70
2021/07/23 08:08:52;;;;;;;6.30;4.63;;;;;;;;;;4878141;29;20215;-71
2021/07/23 08:11:37;;;;;;;5.80;5.30;;;;;;;;;;4877734;29;20338;-71
2021/07/23 08:14:22;;;;;;;4.73;4.33;;;;;;;;;;4877837;29;20237;-72
2021/07/23 08:17:08;;;;;;;5.43;5.00;;;;;;;;;;4875927;29;20427;-72
2021/07/23 08:19:53;;;;;;;5.40;4.90;;;;;;;;;;4876829;29;20237;-72
2021/07/23 08:22:38;;;;;;;5.30;4.80;;;;;;;;;;4877671;29;20238;-70
2021/07/23 08:25:23;;;;;;;5.43;4.93;;;;;;;;;;4877385;29;20217;-71
2021/07/23 08:28:08;;;;;;;5.13;4.60;;;;;;;;;;4876945;29;20212;-71
2021/07/23 08:30:53;;;;;;;5.03;4.57;;;;;;;;;;4877435;29;20225;-71
2021/07/23 08:33:42;;;;;;;4.67;4.37;;;;;;;;;;4877453;29;20231;-72
2021/07/23 08:36:27;;;;;;;5.57;4.40;;;;;;;;;;4876953;29;20335;-72
2021/07/23 08:39:12;;;;;;;4.97;4.50;;;;;;;;;;4877805;29;20705;-73
2021/07/23 08:41:57;;;;;;;5.17;4.77;;;;;;;;;;4877460;29;20341;-72
2021/07/23 08:44:42;;;;;;;5.27;4.80;;;;;;;;;;4877322;29;20300;-71
2021/07/23 08:47:27;;;;;;;4.90;4.50;;;;;;;;;;4876643;29;20214;-73
2021/07/23 08:50:13;;;;;;;5.00;4.60;;;;;;;;;;4877250;29;20222;-72
2021/07/23 08:52:58;;;;;;;5.37;4.97;;;;;;;;;;4877420;29;20739;-72
2021/07/23 08:55:43;;;;;;;4.93;4.53;;;;;;;;;;4876659;29;20234;-71
2021/07/23 08:58:28;;;;;;;5.10;4.73;;;;;;;;;;4876904;29;20330;-72
2021/07/23 09:01:13;;;;;;;5.33;4.83;;;;;;;;;;4876913;29;20287;-71
2021/07/23 09:03:58;;;;;;;5.30;4.80;;;;;;;;;;4876893;29;20746;-71
2021/07/23 09:06:45;;;;;;;4.90;4.50;;;;;;;;;;4876518;29;20656;-72
2021/07/23 09:09:29;;;;;;;5.30;4.90;;;;;;;;;;4876879;29;20219;-72
2021/07/23 09:12:14;;;;;;;5.60;5.10;;;;;;;;;;4876792;29;20723;-71
2021/07/23 09:14:59;;;;;;;5.88;5.38;;;;;;;;;;4876826;29;20890;-70
2021/07/23 09:17:44;;;;;;;6.00;5.27;;;;;;;;;;4877205;29;20259;-72
2021/07/23 09:20:30;;;;;;;5.30;4.90;;;;;;;;;;4876813;29;20614;-72
2021/07/23 09:23:25;;;;;;;5.23;4.80;;;;;;;;;;4876826;29;20222;-71
2021/07/23 09:26:15;;;;;;;4.93;4.53;;;;;;;;;;4876268;29;20340;-72
2021/07/23 09:29:01;;;;;;;5.23;4.83;;;;;;;;;;4876580;29;20208;-73
2021/07/23 09:32:01;;;;;;;6.20;5.20;;;;;;;;;;4878001;29;20227;-72
2021/07/23 09:34:46;;;;;;;5.57;5.00;;;;;;;;;;4880212;29;20247;-71
2021/07/23 09:37:31;;;;;;;5.37;4.97;;;;;;;;;;4879913;29;20211;-73
2021/07/23 09:40:17;;;;;;;5.00;4.60;;;;;;;;;;4880500;29;20215;-71
2021/07/23 09:43:02;;;;;;;4.83;4.43;;;;;;;;;;4880393;29;20230;-70
2021/07/23 09:45:47;;;;;;;4.30;4.00;;;;;;;;;;4879776;29;20699;-69
2021/07/23 09:48:32;;;;;;;5.57;4.40;;;;;;;;;;4880647;29;20211;-70
2021/07/23 09:51:17;;;;;;;5.10;4.60;;;;;;;;;;4880963;29;20570;-72
2021/07/23 09:54:02;;;;;;;4.80;4.40;;;;;;;;;;4880495;29;20299;-72
2021/07/23 09:56:49;;;;;;;4.90;4.50;;;;;;;;;;4879652;29;20567;-71
2021/07/23 09:59:50;;;;;;;4.57;4.17;;;;;;;;;;4880178;29;20211;-70
2021/07/23 10:02:35;;;;;;;5.30;4.80;;;;;;;;;;4879765;29;20234;-72
2021/07/23 10:05:24;;;;;;;5.20;4.70;;;;;;;;;;4880006;29;20689;-71
2021/07/23 10:08:11;;;;;;;4.50;4.17;;;;;;;;;;4878869;29;20219;-72
2021/07/23 10:10:56;;;;;;;4.93;4.53;;;;;;;;;;4880170;29;20203;-71
2021/07/23 10:13:42;;;;;;;4.90;4.50;;;;;;;;;;4879833;29;20280;-71
2021/07/23 10:16:27;;;;;;;5.20;4.78;;;;;;;;;;4877587;29;20527;-70
2021/07/23 10:19:13;;;;;;;5.33;4.83;;;;;;;;;;4879737;29;20231;-71
2021/07/23 10:21:58;;;;;;;4.60;4.10;;;;;;;;;;4879599;29;20724;-72
2021/07/23 10:24:43;;;;;;;4.80;4.40;;;;;;;;;;4879591;29;20223;-72
2021/07/23 10:27:28;;;;;;;5.30;4.80;;;;;;;;;;4878770;29;20210;-70
2021/07/23 10:30:35;;;;;;;5.17;4.77;;;;;;;;;;4879772;29;20569;-71
2021/07/23 10:33:43;;;;;;;6.37;4.90;;;;;;;;;;4872550;29;20269;-72
2021/07/23 10:36:37;;;;;;;6.30;5.10;;;;;;;;;;4860227;29;20252;-71
2021/07/23 10:39:23;;;;;;;4.83;4.43;;;;;;;;;;4860880;29;20208;-71
2021/07/23 10:42:30;;;;;;;7.70;4.90;;;;;;;;;;4860773;29;20728;-71
2021/07/23 10:45:16;;;;;;;6.37;5.03;;;;;;;;;;4861047;29;20212;-69
2021/07/23 10:48:01;;;;;;;5.77;4.87;;;;;;;;;;4860013;29;20236;-70
2021/07/23 10:50:46;;;;;;;6.47;5.10;;;;;;;;;;4860906;29;20208;-70
2021/07/23 10:53:37;;;;;;;5.50;5.00;;;;;;;;;;4860508;29;20361;-73
2021/07/23 10:56:42;;;;;;;5.40;4.90;;;;;;;;;;4859887;29;20241;-70
2021/07/23 10:59:41;;;;;;;5.97;5.30;;;;;;;;;;4860880;29;20220;-73
2021/07/23 11:02:46;;;;;;;5.43;4.93;;;;;;;;;;4860383;29;20601;-71
2021/07/23 11:05:32;;;;;;;5.37;4.97;;;;;;;;;;4868470;29;20207;-71
2021/07/23 11:08:17;;;;;;;5.93;5.40;;;;;;;;;;4879218;29;20214;-72
2021/07/23 11:11:03;;;;;;;6.13;5.53;;;;;;;;;;4879016;29;20794;-69
2021/07/23 11:13:48;;;;;;;5.95;5.35;;;;;;;;;;4862758;29;20428;-70
2021/07/23 11:16:33;;;;;;;5.93;5.33;;;;;;;;;;4859194;29;20235;-70
2021/07/23 11:19:19;;;;;;;5.83;5.30;;;;;;;;;;4862675;29;20223;-70
2021/07/23 11:22:04;;;;;;;6.03;5.43;;;;;;;;;;4876678;29;20369;-69
2021/07/23 11:24:49;;;;;;;6.33;5.40;;;;;;;;;;4858851;29;20211;-69
2021/07/23 11:27:36;;;;;;;6.17;5.67;;;;;;;;;;4858462;29;20701;-70
2021/07/23 11:30:25;;;;;;;5.63;5.13;;;;;;;;;;4877479;29;20211;-73
2021/07/23 11:33:10;;;;;;;6.20;5.53;;;;;;;;;;4878338;29;20239;-70
2021/07/23 11:35:55;;;;;;;5.43;4.93;;;;;;;;;;4877637;29;20337;-70
2021/07/23 11:38:40;;;;;;;6.03;5.43;;;;;;;;;;4878561;29;20221;-70
2021/07/23 11:41:25;;;;;;;6.17;5.67;;;;;;;;;;4878534;29;20224;-70
2021/07/23 11:44:12;;;;;;;6.43;5.17;;;;;;;;;;4878358;29;20346;-70
2021/07/23 11:46:57;;;;;;;5.60;5.10;;;;;;;;;;4878060;29;20344;-70
2021/07/23 11:49:41;;;;;;;5.60;5.20;;;;;;;;;;4878211;29;20288;-70
2021/07/23 11:52:27;;;;;;;5.88;5.38;;;;;;;;;;4877795;29;20418;-70
2021/07/23 11:55:12;;;;;;;5.33;4.93;;;;;;;;;;4878271;29;20591;-70
2021/07/23 11:57:58;;;;;;;5.70;5.10;;;;;;;;;;4877624;29;20255;-69
2021/07/23 12:00:44;;;;;;;5.87;5.43;;;;;;;;;;4877984;29;20208;-69
2021/07/23 12:03:31;;;;;;;6.20;5.70;;;;;;;;;;4877983;29;20307;-69
2021/07/23 12:06:16;;;;;;;5.40;5.00;;;;;;;;;;4877523;29;20223;-69
2021/07/23 12:09:02;;;;;;;5.70;5.17;;;;;;;;;;4878413;29;20687;-70
2021/07/23 12:11:47;;;;;;;5.57;5.13;;;;;;;;;;4877680;29;20627;-69
2021/07/23 12:14:32;;;;;;;5.85;5.35;;;;;;;;;;4877190;29;20443;-70
2021/07/23 12:17:21;;;;;;;5.13;4.73;;;;;;;;;;4877338;29;20406;-69
2021/07/23 12:20:06;;;;;;;8.00;5.10;;;;;;;;;;4877822;29;20216;-70
2021/07/23 12:22:58;;;;;;;4.87;4.47;;;;;;;;;;4877884;29;20226;-69
2021/07/23 12:25:45;;;;;;;5.33;4.93;;;;;;;;;;4877517;29;20235;-69
2021/07/23 12:28:30;;;;;;;5.53;5.00;;;;;;;;;;4877860;29;20210;-69
2021/07/23 12:31:18;;;;;;;4.97;4.57;;;;;;;;;;4877691;29;20700;-70
2021/07/23 12:34:09;;;;;;;5.70;5.10;;;;;;;;;;4877363;29;20235;-70
2021/07/23 12:36:54;;;;;;;5.20;4.80;;;;;;;;;;4876670;29;20239;-70
2021/07/23 12:39:49;;;;;;;5.80;5.30;;;;;;;;;;4877952;29;20234;-71
2021/07/23 12:42:34;;;;;;;5.50;5.00;;;;;;;;;;4877417;29;20307;-71
2021/07/23 12:45:33;;;;;;;5.57;5.10;;;;;;;;;;4877472;29;20199;-71
2021/07/23 12:48:20;;;;;;;6.43;5.80;;;;;;;;;;4877501;29;20223;-70
2021/07/23 12:51:09;;;;;;;6.25;5.65;;;;;;;;;;4877544;29;20808;-69
2021/07/23 12:53:57;;;;;;;5.33;4.93;;;;;;;;;;4877412;29;20235;-72
2021/07/23 12:56:43;;;;;;;5.53;5.03;;;;;;;;;;4876485;29;20231;-70
2021/07/23 12:59:29;;;;;;;5.27;4.80;;;;;;;;;;4876803;29;20199;-71
2021/07/23 13:02:14;;;;;;;5.87;5.33;;;;;;;;;;4873190;29;20247;-71
2021/07/23 13:04:59;;;;;;;4.90;4.60;;;;;;;;;;4876387;29;20215;-70
2021/07/23 13:07:46;;;;;;;6.17;5.40;;;;;;;;;;4871960;29;20215;-71
2021/07/23 13:10:34;;;;;;;5.73;5.23;;;;;;;;;;4876312;29;20230;-72
2021/07/23 13:13:19;;;;;;;6.18;5.68;;;;;;;;;;4876648;29;20414;-71
2021/07/23 13:16:04;;;;;;;6.17;5.57;;;;;;;;;;4876241;29;20351;-70
2021/07/23 13:18:49;;;;;;;8.03;6.17;;;;;;;;;;4876929;29;20334;-70
2021/07/23 13:21:34;;;;;;;6.13;5.53;;;;;;;;;;4876963;29;20572;-71
2021/07/23 13:24:21;;;;;;;5.43;5.03;;;;;;;;;;4877031;29;20227;-70
2021/07/23 13:27:06;;;;;;;6.40;5.80;;;;;;;;;;4876377;29;20207;-71
2021/07/23 13:29:51;;;;;;;6.70;6.03;;;;;;;;;;4867981;29;20705;-69
2021/07/23 13:32:35;;;;;;;6.30;5.70;;;;;;;;;;4861468;29;20239;-70
2021/07/23 13:35:20;;;;;;;6.47;5.97;;;;;;;;;;4876896;29;20215;-70
2021/07/23 13:38:08;;;;;;;7.80;6.43;;;;;;;;;;4875959;29;20700;-70
2021/07/23 13:40:55;;;;;;;7.00;6.30;;;;;;;;;;4876761;29;20259;-71
2021/07/23 13:43:40;;;;;;;6.83;6.23;;;;;;;;;;4876742;29;20231;-70
2021/07/23 13:46:25;;;;;;;7.13;6.53;;;;;;;;;;4875759;29;20217;-70
2021/07/23 13:49:10;;;;;;;6.83;6.23;;;;;;;;;;4876792;29;20600;-70
2021/07/23 13:51:55;;;;;;;7.07;6.23;;;;;;;;;;4876384;29;20223;-69
2021/07/23 13:54:40;;;;;;;6.63;5.97;;;;;;;;;;4876621;29;20212;-70
2021/07/23 13:57:27;;;;;;;6.80;6.30;;;;;;;;;;4875500;29;20238;-70
2021/07/23 14:00:12;;;;;;;7.23;6.53;;;;;;;;;;4876349;29;20210;-70
2021/07/23 14:02:58;;;;;;;7.60;6.90;;;;;;;;;;4873780;29;20780;-69
2021/07/23 14:05:43;;;;;;;7.70;6.97;;;;;;;;;;4874953;29;20220;-70
2021/07/23 14:08:28;;;;;;;8.70;6.77;;;;;;;;;;4883123;29;20210;-72
2021/07/23 14:11:13;;;;;;;7.83;6.40;;;;;;;;;;4875623;29;20226;-70
2021/07/23 14:13:59;;;;;;;7.83;7.13;;;;;;;;;;4885147;29;20318;-71
2021/07/23 14:16:44;;;;;;;8.30;7.50;;;;;;;;;;4886383;29;20237;-71
2021/07/23 14:19:29;;;;;;;9.77;7.47;;;;;;;;;;4892727;29;20359;-72
2021/07/23 14:22:14;;;;;;;8.43;7.57;;;;;;;;;;4892809;29;20243;-70
2021/07/23 14:24:59;;;;;;;7.67;6.97;;;;;;;;;;4898544;29;20691;-71
2021/07/23 14:27:44;;;;;;;7.70;6.90;;;;;;;;;;4878851;29;20210;-70
2021/07/23 14:30:30;;;;;;;7.77;6.97;;;;;;;;;;4896855;29;20207;-71
2021/07/23 14:33:15;;;;;;;8.87;7.80;;;;;;;;;;4884983;29;20590;-71
2021/07/23 14:36:01;;;;;;;8.20;7.50;;;;;;;;;;4877571;29;20227;-71
2021/07/23 14:38:46;;;;;;;7.77;7.00;;;;;;;;;;4883670;29;20755;-71
2021/07/23 14:41:32;;;;;;;7.60;6.90;;;;;;;;;;4881890;29;20213;-71
2021/07/23 14:44:16;;;;;;;8.03;7.33;;;;;;;;;;4881364;29;20880;-70
2021/07/23 14:47:03;;;;;;;7.40;6.80;;;;;;;;;;4891866;29;20355;-71
2021/07/23 14:49:48;;;;;;;7.73;7.03;;;;;;;;;;4897811;29;20671;-71
2021/07/23 14:52:33;;;;;;;8.32;7.60;;;;;;;;;;4892458;29;20442;-71
2021/07/23 14:55:18;;;;;;;7.93;7.20;;;;;;;;;;4896013;29;20707;-70
2021/07/23 14:58:03;;;;;;;7.77;7.07;;;;;;;;;;4876716;29;20575;-71
2021/07/23 15:00:48;;;;;;;7.10;6.40;;;;;;;;;;4878496;29;20227;-71
2021/07/23 15:03:35;;;;;;;6.77;6.27;;;;;;;;;;4878045;29;20243;-70
2021/07/23 15:06:20;;;;;;;7.10;6.50;;;;;;;;;;4878726;29;20211;-71
2021/07/23 15:09:05;;;;;;;8.47;6.80;;;;;;;;;;4877374;29;20235;-71
2021/07/23 15:11:50;;;;;;;7.73;6.53;;;;;;;;;;4874534;29;20781;-72
2021/07/23 15:14:35;;;;;;;8.43;7.45;;;;;;;;;;4876805;29;20415;-71
2021/07/23 15:17:22;;;;;;;7.93;7.33;;;;;;;;;;4877246;29;20504;-69
2021/07/23 15:20:10;;;;;;;7.47;6.73;;;;;;;;;;4879414;29;20219;-71
2021/07/23 15:22:55;;;;;;;7.87;7.27;;;;;;;;;;4877434;29;20321;-69
2021/07/23 15:25:42;;;;;;;7.33;6.63;;;;;;;;;;4880851;29;20209;-71
2021/07/23 15:28:27;;;;;;;7.63;6.90;;;;;;;;;;4875457;29;20226;-71
2021/07/23 15:31:12;;;;;;;8.83;6.43;;;;;;;;;;4876183;29;20218;-69
2021/07/23 15:33:59;;;;;;;7.63;6.93;;;;;;;;;;4877152;29;20756;-71
2021/07/23 15:36:45;;;;;;;8.17;7.00;;;;;;;;;;4877053;29;20227;-71
2021/07/23 15:39:30;;;;;;;7.97;7.27;;;;;;;;;;4877527;29;20227;-71
2021/07/23 15:42:15;;;;;;;7.77;7.07;;;;;;;;;;4877814;29;20595;-72
2021/07/23 15:45:00;;;;;;;7.70;7.00;;;;;;;;;;4877726;29;20215;-71
2021/07/23 15:47:45;;;;;;;7.90;7.20;;;;;;;;;;4875902;29;20206;-71
2021/07/23 15:50:30;;;;;;;8.10;7.30;;;;;;;;;;4880436;29;20215;-69
2021/07/23 15:53:16;;;;;;;9.27;7.90;;;;;;;;;;4885808;29;20375;-71
2021/07/23 15:56:06;;;;;;;9.90;8.17;;;;;;;;;;4878815;29;20212;-70
2021/07/23 15:58:51;;;;;;;8.23;7.43;;;;;;;;;;4877465;29;20211;-68
2021/07/23 16:01:37;;;;;;;10.20;8.83;;;;;;;;;;4877135;29;20215;-69
2021/07/23 16:04:21;;;;;;;10.07;9.03;;;;;;;;;;4877167;29;20223;-70
2021/07/23 16:07:06;;;;;;;11.13;9.30;;;;;;;;;;4876622;29;20204;-70
2021/07/23 16:09:53;;;;;;;11.47;9.60;;;;;;;;;;4877237;29;20210;-70
2021/07/23 16:12:37;;;;;;;11.37;10.17;;;;;;;;;;4877323;29;20285;-70
2021/07/23 16:15:22;;;;;;;10.20;9.10;;;;;;;;;;4877861;29;20297;-70
2021/07/23 16:18:08;;;;;;;11.30;9.70;;;;;;;;;;4874996;29;20729;-70
2021/07/23 16:20:52;;;;;;;10.60;9.10;;;;;;;;;;4877139;29;20312;-69
2021/07/23 16:23:37;;;;;;;10.93;9.93;;;;;;;;;;4880889;29;20724;-70
2021/07/23 16:26:24;;;;;;;11.63;10.53;;;;;;;;;;4888410;29;20207;-69